Murray, UT

9:44 AM MDT on March 31, 2015 (GMT -0600)
MesoWest | | Change Station
CLOSE
Current Station
Personal Weather Station
Location: Murray, UT
Elevation: 4407 ft
Nearby Weather Stations

Elev 4407 ft 40.64 °N, 111.90 °W | Updated 44 minutes ago

Mostly Cloudy
Mostly Cloudy
61 °F
Feels Like 61 °F
N
10
Wind Variable Wind from SSW
Gusts 17.0 mph

Today
High -- | Low -- °F
--% Chance of Precip.
Yesterday
High -- | Low -- °F
Precip. -- in
7:13 AM 7:51 PM
Waxing Gibbous, 87% visible
Pressure 29.87 in
Visibility 10.0 miles
Clouds Few 15000 ft
Scattered Clouds 20000 ft
Mostly Cloudy 23000 ft
Dew Point 25 °F
Humidity 25%
Rainfall in
Snow Depth Not available.
UV 1 out of 12
Pollen 8.90 out of 12
Air Quality Not available.
Flu Activity Not available.
METAR KSLC 311453Z 13012KT 10SM FEW150 SCT200 BKN230 15/M02 A2996 RMK AO2 SLP113 ACSL DSNT NE T01501022 58005

More Conditions Fewer Conditions

Pressure 29.87 in
Visibility 10.0 miles
Clouds Few 15000 ft
Scattered Clouds 20000 ft
Mostly Cloudy 23000 ft
Dew Point 25 °F
Humidity 25%
Rainfall in
Snow Depth Not available.
UV 1 out of 12
Pollen 8.90 out of 12
Air Quality Not available.
Flu Activity Not available.
METAR KSLC 311453Z 13012KT 10SM FEW150 SCT200 BKN230 15/M02 A2996 RMK AO2 SLP113 ACSL DSNT NE T01501022 58005

More Conditions Fewer Conditions

10-Day Weather Forecast

Almanac

Astronomy

Mar. 31, 2015 Rise Set
Actual Time
Civil Twilight
Nautical Twilight
Astronomical Twilight
Moon
Length of Visible Light
Length of Day
Tomorrow will be .
, % of the Moon is Illuminated

Today's Extremes

State Highs State Lows

Community

WunderPhotos

Upload Photos

1,809,781 photos uploaded!

WunderBlogs® & News

Nearby

Air Quality

  Air Quality AQ Index Pollutant
Not available.

Snow Depth

Station Depth Elevation

Earthquake Activity

City Distance Mag. Time & Date
Minimum magnitude displayed is 2.5.

Coastal Water Temperatures

Place Temperature

Stations

Nearby Weather Stations

Station Location Temp. Windchill Dew Point Humidity Wind Precip. Elev Updated Type